Terminal Aerodrome Forecast
Issued by NWS

Current Version | Previous Version | Text Only | Print | Product List | Glossary On
Versions: 1 2 3 4 5 6 7 8 9 10 11 12 13 14 15 16 17 18 19
945
FTUS44 KLIX 290606 AAA
TAFMCB
TAF AMD
KMCB 290606Z 2906/3006 00000KT P6SM SKC
     FM291000 00000KT P6SM SCT015 BKN250
     FM291500 04005KT P6SM SCT040 BKN150
     FM292300 10005KT P6SM SCT150=

USA.gov is the U.S. government's official web portal to all federal, state and local government web resources and services.